sensor_id;sensor_type;location;lat;lon;timestamp;temperature;humidity
54431;DHT22;40342;52.998;5.862;2023-11-21T00:01:57;9.20;99.90
54431;DHT22;40342;52.998;5.862;2023-11-21T00:04:24;9.20;99.90
54431;DHT22;40342;52.998;5.862;2023-11-21T00:06:50;9.20;99.90
54431;DHT22;40342;52.998;5.862;2023-11-21T00:09:15;9.20;99.90
54431;DHT22;40342;52.998;5.862;2023-11-21T00:11:42;9.30;99.90
54431;DHT22;40342;52.998;5.862;2023-11-21T00:14:09;9.30;99.90
54431;DHT22;40342;52.998;5.862;2023-11-21T00:16:34;9.30;99.90
54431;DHT22;40342;52.998;5.862;2023-11-21T00:19:00;9.30;99.90
54431;DHT22;40342;52.998;5.862;2023-11-21T00:21:25;9.30;99.90
54431;DHT22;40342;52.998;5.862;2023-11-21T00:23:51;9.40;99.90
54431;DHT22;40342;52.998;5.862;2023-11-21T00:26:17;9.40;99.90
54431;DHT22;40342;52.998;5.862;2023-11-21T00:28:42;9.40;99.90
54431;DHT22;40342;52.998;5.862;2023-11-21T00:31:08;9.40;99.90
54431;DHT22;40342;52.998;5.862;2023-11-21T00:33:33;9.40;99.90
54431;DHT22;40342;52.998;5.862;2023-11-21T00:35:59;9.40;99.90
54431;DHT22;40342;52.998;5.862;2023-11-21T00:38:26;9.40;99.90
54431;DHT22;40342;52.998;5.862;2023-11-21T00:40:52;9.40;99.90
54431;DHT22;40342;52.998;5.862;2023-11-21T00:43:22;9.40;99.90
54431;DHT22;40342;52.998;5.862;2023-11-21T00:45:48;9.40;99.90
54431;DHT22;40342;52.998;5.862;2023-11-21T00:48:14;9.40;99.90
54431;DHT22;40342;52.998;5.862;2023-11-21T00:50:40;9.40;99.90
54431;DHT22;40342;52.998;5.862;2023-11-21T00:53:06;9.50;99.90
54431;DHT22;40342;52.998;5.862;2023-11-21T00:55:33;9.50;99.90
54431;DHT22;40342;52.998;5.862;2023-11-21T00:57:59;9.50;99.90
54431;DHT22;40342;52.998;5.862;2023-11-21T01:00:25;9.50;99.90
54431;DHT22;40342;52.998;5.862;2023-11-21T01:02:51;9.50;99.90
54431;DHT22;40342;52.998;5.862;2023-11-21T01:05:17;9.50;99.90
54431;DHT22;40342;52.998;5.862;2023-11-21T01:07:42;9.50;99.90
54431;DHT22;40342;52.998;5.862;2023-11-21T01:10:08;9.50;99.90
54431;DHT22;40342;52.998;5.862;2023-11-21T01:12:36;9.40;99.90
54431;DHT22;40342;52.998;5.862;2023-11-21T01:15:03;9.40;99.90
54431;DHT22;40342;52.998;5.862;2023-11-21T01:17:29;9.40;99.90
54431;DHT22;40342;52.998;5.862;2023-11-21T01:19:55;9.50;99.90
54431;DHT22;40342;52.998;5.862;2023-11-21T01:22:21;9.50;99.90
54431;DHT22;40342;52.998;5.862;2023-11-21T01:24:52;9.40;99.90
54431;DHT22;40342;52.998;5.862;2023-11-21T01:27:18;9.50;99.90
54431;DHT22;40342;52.998;5.862;2023-11-21T01:29:44;9.50;99.90
54431;DHT22;40342;52.998;5.862;2023-11-21T01:32:10;9.50;99.90
54431;DHT22;40342;52.998;5.862;2023-11-21T01:34:36;9.50;99.90
54431;DHT22;40342;52.998;5.862;2023-11-21T01:37:02;9.50;99.90
54431;DHT22;40342;52.998;5.862;2023-11-21T01:39:30;9.50;99.90
54431;DHT22;40342;52.998;5.862;2023-11-21T01:41:55;9.50;99.90
54431;DHT22;40342;52.998;5.862;2023-11-21T01:44:24;9.50;99.90
54431;DHT22;40342;52.998;5.862;2023-11-21T01:46:50;9.60;99.90
54431;DHT22;40342;52.998;5.862;2023-11-21T01:49:16;9.60;99.90
54431;DHT22;40342;52.998;5.862;2023-11-21T01:51:44;9.60;99.90
54431;DHT22;40342;52.998;5.862;2023-11-21T01:54:12;9.60;99.90
54431;DHT22;40342;52.998;5.862;2023-11-21T01:56:38;9.60;99.90
54431;DHT22;40342;52.998;5.862;2023-11-21T01:59:05;9.70;99.90
54431;DHT22;40342;52.998;5.862;2023-11-21T02:01:33;9.70;99.90
54431;DHT22;40342;52.998;5.862;2023-11-21T02:03:59;9.70;99.90
54431;DHT22;40342;52.998;5.862;2023-11-21T02:06:24;9.70;99.90
54431;DHT22;40342;52.998;5.862;2023-11-21T02:08:51;9.70;99.90
54431;DHT22;40342;52.998;5.862;2023-11-21T02:11:17;9.70;99.90
54431;DHT22;40342;52.998;5.862;2023-11-21T02:13:44;9.70;99.90
54431;DHT22;40342;52.998;5.862;2023-11-21T02:16:11;9.70;99.90
54431;DHT22;40342;52.998;5.862;2023-11-21T02:18:38;9.70;99.90
54431;DHT22;40342;52.998;5.862;2023-11-21T02:21:05;9.70;99.90
54431;DHT22;40342;52.998;5.862;2023-11-21T02:23:30;9.70;99.90
54431;DHT22;40342;52.998;5.862;2023-11-21T02:25:56;9.70;99.90
54431;DHT22;40342;52.998;5.862;2023-11-21T02:28:22;9.70;99.90
54431;DHT22;40342;52.998;5.862;2023-11-21T02:30:51;9.70;99.90
54431;DHT22;40342;52.998;5.862;2023-11-21T02:33:21;9.80;99.90
54431;DHT22;40342;52.998;5.862;2023-11-21T02:35:47;9.70;99.90
54431;DHT22;40342;52.998;5.862;2023-11-21T02:38:13;9.80;99.90
54431;DHT22;40342;52.998;5.862;2023-11-21T02:40:39;9.80;99.90
54431;DHT22;40342;52.998;5.862;2023-11-21T02:43:04;9.80;99.90
54431;DHT22;40342;52.998;5.862;2023-11-21T02:45:31;9.80;99.90
54431;DHT22;40342;52.998;5.862;2023-11-21T02:47:57;9.80;99.90
54431;DHT22;40342;52.998;5.862;2023-11-21T02:50:23;9.80;99.90
54431;DHT22;40342;52.998;5.862;2023-11-21T02:52:49;9.80;99.90
54431;DHT22;40342;52.998;5.862;2023-11-21T02:55:15;9.90;99.90
54431;DHT22;40342;52.998;5.862;2023-11-21T02:57:40;9.90;99.90
54431;DHT22;40342;52.998;5.862;2023-11-21T03:00:06;9.90;99.90
54431;DHT22;40342;52.998;5.862;2023-11-21T03:02:33;9.90;99.90
54431;DHT22;40342;52.998;5.862;2023-11-21T03:05:02;9.90;99.90
54431;DHT22;40342;52.998;5.862;2023-11-21T03:07:28;9.90;99.90
54431;DHT22;40342;52.998;5.862;2023-11-21T03:09:53;9.90;99.90
54431;DHT22;40342;52.998;5.862;2023-11-21T03:12:19;9.90;99.90
54431;DHT22;40342;52.998;5.862;2023-11-21T03:14:45;9.90;99.90
54431;DHT22;40342;52.998;5.862;2023-11-21T03:17:10;9.90;99.90
54431;DHT22;40342;52.998;5.862;2023-11-21T03:19:37;9.90;99.90
54431;DHT22;40342;52.998;5.862;2023-11-21T03:22:03;9.90;99.90
54431;DHT22;40342;52.998;5.862;2023-11-21T03:24:29;9.90;99.90
54431;DHT22;40342;52.998;5.862;2023-11-21T03:26:55;10.00;99.90
54431;DHT22;40342;52.998;5.862;2023-11-21T03:29:21;10.00;99.90
54431;DHT22;40342;52.998;5.862;2023-11-21T03:31:47;10.00;99.90
54431;DHT22;40342;52.998;5.862;2023-11-21T03:34:22;10.00;99.90
54431;DHT22;40342;52.998;5.862;2023-11-21T03:36:48;10.00;99.90
54431;DHT22;40342;52.998;5.862;2023-11-21T03:39:13;10.00;99.90
54431;DHT22;40342;52.998;5.862;2023-11-21T03:41:39;10.00;99.90
54431;DHT22;40342;52.998;5.862;2023-11-21T03:44:05;10.00;99.90
54431;DHT22;40342;52.998;5.862;2023-11-21T03:46:30;10.10;99.90
54431;DHT22;40342;52.998;5.862;2023-11-21T03:48:56;10.10;99.90
54431;DHT22;40342;52.998;5.862;2023-11-21T03:51:21;10.00;99.90
54431;DHT22;40342;52.998;5.862;2023-11-21T03:53:47;10.10;99.90
54431;DHT22;40342;52.998;5.862;2023-11-21T03:56:14;10.10;99.90
54431;DHT22;40342;52.998;5.862;2023-11-21T03:58:39;10.10;99.90
54431;DHT22;40342;52.998;5.862;2023-11-21T04:01:05;10.10;99.90
54431;DHT22;40342;52.998;5.862;2023-11-21T04:03:31;10.10;99.90
54431;DHT22;40342;52.998;5.862;2023-11-21T04:05:56;10.10;99.90
54431;DHT22;40342;52.998;5.862;2023-11-21T04:08:22;10.10;99.90
54431;DHT22;40342;52.998;5.862;2023-11-21T04:10:48;10.10;99.90
54431;DHT22;40342;52.998;5.862;2023-11-21T04:13:14;10.10;99.90
54431;DHT22;40342;52.998;5.862;2023-11-21T04:15:39;10.10;99.90
54431;DHT22;40342;52.998;5.862;2023-11-21T04:18:05;10.10;99.90
54431;DHT22;40342;52.998;5.862;2023-11-21T04:20:31;10.10;99.90
54431;DHT22;40342;52.998;5.862;2023-11-21T04:22:56;10.10;99.90
54431;DHT22;40342;52.998;5.862;2023-11-21T04:25:22;10.10;99.90
54431;DHT22;40342;52.998;5.862;2023-11-21T04:27:48;10.10;99.90
54431;DHT22;40342;52.998;5.862;2023-11-21T04:30:15;10.10;99.90
54431;DHT22;40342;52.998;5.862;2023-11-21T04:32:41;10.10;99.90
54431;DHT22;40342;52.998;5.862;2023-11-21T04:35:07;10.10;99.90
54431;DHT22;40342;52.998;5.862;2023-11-21T04:37:34;10.20;99.90
54431;DHT22;40342;52.998;5.862;2023-11-21T04:39:59;10.20;99.90
54431;DHT22;40342;52.998;5.862;2023-11-21T04:42:25;10.10;99.90
54431;DHT22;40342;52.998;5.862;2023-11-21T04:44:50;10.10;99.90
54431;DHT22;40342;52.998;5.862;2023-11-21T04:47:18;10.10;99.90
54431;DHT22;40342;52.998;5.862;2023-11-21T04:49:46;10.10;99.90
54431;DHT22;40342;52.998;5.862;2023-11-21T04:52:12;10.10;99.90
54431;DHT22;40342;52.998;5.862;2023-11-21T04:54:38;10.10;99.90
54431;DHT22;40342;52.998;5.862;2023-11-21T04:57:05;10.10;99.90
54431;DHT22;40342;52.998;5.862;2023-11-21T04:59:33;10.10;99.90
54431;DHT22;40342;52.998;5.862;2023-11-21T05:01:58;10.10;99.90
54431;DHT22;40342;52.998;5.862;2023-11-21T05:04:25;10.10;99.90
54431;DHT22;40342;52.998;5.862;2023-11-21T05:06:51;10.10;99.90
54431;DHT22;40342;52.998;5.862;2023-11-21T05:09:16;10.10;99.90
54431;DHT22;40342;52.998;5.862;2023-11-21T05:11:43;10.00;99.90
54431;DHT22;40342;52.998;5.862;2023-11-21T05:14:08;10.10;99.90
54431;DHT22;40342;52.998;5.862;2023-11-21T05:16:34;10.10;99.90
54431;DHT22;40342;52.998;5.862;2023-11-21T05:19:00;10.10;99.90
54431;DHT22;40342;52.998;5.862;2023-11-21T05:21:27;10.00;99.90
54431;DHT22;40342;52.998;5.862;2023-11-21T05:23:53;10.00;99.90
54431;DHT22;40342;52.998;5.862;2023-11-21T05:26:19;10.00;99.90
54431;DHT22;40342;52.998;5.862;2023-11-21T05:28:44;10.00;99.90
54431;DHT22;40342;52.998;5.862;2023-11-21T05:31:10;10.00;99.90
54431;DHT22;40342;52.998;5.862;2023-11-21T05:33:36;10.00;99.90
54431;DHT22;40342;52.998;5.862;2023-11-21T05:36:02;10.00;99.90
54431;DHT22;40342;52.998;5.862;2023-11-21T05:38:27;10.00;99.90
54431;DHT22;40342;52.998;5.862;2023-11-21T05:40:53;10.00;99.90
54431;DHT22;40342;52.998;5.862;2023-11-21T05:43:19;10.00;99.90
54431;DHT22;40342;52.998;5.862;2023-11-21T05:45:45;10.00;99.90
54431;DHT22;40342;52.998;5.862;2023-11-21T05:48:10;9.90;99.90
54431;DHT22;40342;52.998;5.862;2023-11-21T05:50:36;10.00;99.90
54431;DHT22;40342;52.998;5.862;2023-11-21T05:53:03;9.90;99.90
54431;DHT22;40342;52.998;5.862;2023-11-21T05:55:29;9.90;99.90
54431;DHT22;40342;52.998;5.862;2023-11-21T05:57:55;9.90;99.90
54431;DHT22;40342;52.998;5.862;2023-11-21T06:00:20;9.90;99.90
54431;DHT22;40342;52.998;5.862;2023-11-21T06:02:51;9.90;99.90
54431;DHT22;40342;52.998;5.862;2023-11-21T06:05:19;9.90;99.90
54431;DHT22;40342;52.998;5.862;2023-11-21T06:07:45;9.90;99.90
54431;DHT22;40342;52.998;5.862;2023-11-21T06:10:11;9.90;99.90
54431;DHT22;40342;52.998;5.862;2023-11-21T06:12:40;9.80;99.90
54431;DHT22;40342;52.998;5.862;2023-11-21T06:15:08;9.80;99.90
54431;DHT22;40342;52.998;5.862;2023-11-21T06:17:35;9.80;99.90
54431;DHT22;40342;52.998;5.862;2023-11-21T06:20:05;9.80;99.90
54431;DHT22;40342;52.998;5.862;2023-11-21T06:22:44;9.80;99.90
54431;DHT22;40342;52.998;5.862;2023-11-21T06:25:11;9.80;99.90
54431;DHT22;40342;52.998;5.862;2023-11-21T06:27:48;9.80;99.90
54431;DHT22;40342;52.998;5.862;2023-11-21T06:30:15;9.80;99.90
54431;DHT22;40342;52.998;5.862;2023-11-21T06:32:41;9.70;99.90
54431;DHT22;40342;52.998;5.862;2023-11-21T06:35:08;9.80;99.90
54431;DHT22;40342;52.998;5.862;2023-11-21T06:37:35;9.70;99.90
54431;DHT22;40342;52.998;5.862;2023-11-21T06:40:01;9.70;99.90
54431;DHT22;40342;52.998;5.862;2023-11-21T06:42:29;9.70;99.90
54431;DHT22;40342;52.998;5.862;2023-11-21T06:44:55;9.70;99.90
54431;DHT22;40342;52.998;5.862;2023-11-21T06:47:24;9.70;99.90
54431;DHT22;40342;52.998;5.862;2023-11-21T06:49:51;9.70;99.90
54431;DHT22;40342;52.998;5.862;2023-11-21T06:52:17;9.70;99.90
54431;DHT22;40342;52.998;5.862;2023-11-21T06:54:43;9.60;99.90
54431;DHT22;40342;52.998;5.862;2023-11-21T06:57:09;9.60;99.90
54431;DHT22;40342;52.998;5.862;2023-11-21T06:59:34;9.60;99.90
54431;DHT22;40342;52.998;5.862;2023-11-21T07:02:00;9.60;99.90
54431;DHT22;40342;52.998;5.862;2023-11-21T07:04:26;9.60;99.90
54431;DHT22;40342;52.998;5.862;2023-11-21T07:06:53;9.60;99.90
54431;DHT22;40342;52.998;5.862;2023-11-21T07:09:18;9.60;99.90
54431;DHT22;40342;52.998;5.862;2023-11-21T07:11:50;9.60;99.90
54431;DHT22;40342;52.998;5.862;2023-11-21T07:14:15;9.50;99.90
54431;DHT22;40342;52.998;5.862;2023-11-21T07:16:42;9.60;99.90
54431;DHT22;40342;52.998;5.862;2023-11-21T07:19:08;9.60;99.90
54431;DHT22;40342;52.998;5.862;2023-11-21T07:21:37;9.50;99.90
54431;DHT22;40342;52.998;5.862;2023-11-21T07:24:03;9.50;99.90
54431;DHT22;40342;52.998;5.862;2023-11-21T07:26:30;9.60;99.90
54431;DHT22;40342;52.998;5.862;2023-11-21T07:28:55;9.50;99.90
54431;DHT22;40342;52.998;5.862;2023-11-21T07:31:22;9.50;99.90
54431;DHT22;40342;52.998;5.862;2023-11-21T07:33:48;9.50;99.90
54431;DHT22;40342;52.998;5.862;2023-11-21T07:36:14;9.50;99.90
54431;DHT22;40342;52.998;5.862;2023-11-21T07:38:42;9.50;99.90
54431;DHT22;40342;52.998;5.862;2023-11-21T07:41:08;9.50;99.90
54431;DHT22;40342;52.998;5.862;2023-11-21T07:43:35;9.50;99.90
54431;DHT22;40342;52.998;5.862;2023-11-21T07:46:01;9.50;99.90
54431;DHT22;40342;52.998;5.862;2023-11-21T07:48:29;9.50;99.90
54431;DHT22;40342;52.998;5.862;2023-11-21T07:50:55;9.50;99.90
54431;DHT22;40342;52.998;5.862;2023-11-21T07:53:21;9.50;99.90
54431;DHT22;40342;52.998;5.862;2023-11-21T07:55:47;9.50;99.90
54431;DHT22;40342;52.998;5.862;2023-11-21T07:58:12;9.50;99.90
54431;DHT22;40342;52.998;5.862;2023-11-21T08:00:38;9.50;99.90
54431;DHT22;40342;52.998;5.862;2023-11-21T08:03:05;9.50;99.90
54431;DHT22;40342;52.998;5.862;2023-11-21T08:05:31;9.50;99.90
54431;DHT22;40342;52.998;5.862;2023-11-21T08:07:57;9.50;99.90
54431;DHT22;40342;52.998;5.862;2023-11-21T08:10:22;9.50;99.90
54431;DHT22;40342;52.998;5.862;2023-11-21T08:12:48;9.50;99.90
54431;DHT22;40342;52.998;5.862;2023-11-21T08:15:16;9.50;99.90
54431;DHT22;40342;52.998;5.862;2023-11-21T08:17:42;9.40;99.90
54431;DHT22;40342;52.998;5.862;2023-11-21T08:20:08;9.40;99.90
54431;DHT22;40342;52.998;5.862;2023-11-21T08:22:36;9.40;99.90
54431;DHT22;40342;52.998;5.862;2023-11-21T08:25:02;9.40;99.90
54431;DHT22;40342;52.998;5.862;2023-11-21T08:27:29;9.40;99.90
54431;DHT22;40342;52.998;5.862;2023-11-21T08:29:55;9.40;99.90
54431;DHT22;40342;52.998;5.862;2023-11-21T08:32:22;9.30;99.90
54431;DHT22;40342;52.998;5.862;2023-11-21T08:34:47;9.30;99.90
54431;DHT22;40342;52.998;5.862;2023-11-21T08:37:16;9.30;99.90
54431;DHT22;40342;52.998;5.862;2023-11-21T08:39:44;9.30;99.90
54431;DHT22;40342;52.998;5.862;2023-11-21T08:42:09;9.20;99.90
54431;DHT22;40342;52.998;5.862;2023-11-21T08:44:35;9.20;99.90
54431;DHT22;40342;52.998;5.862;2023-11-21T08:47:00;9.20;99.90
54431;DHT22;40342;52.998;5.862;2023-11-21T08:49:26;9.20;99.90
54431;DHT22;40342;52.998;5.862;2023-11-21T08:51:53;9.20;99.90
54431;DHT22;40342;52.998;5.862;2023-11-21T08:54:21;9.10;99.90
54431;DHT22;40342;52.998;5.862;2023-11-21T08:56:46;9.10;99.90
54431;DHT22;40342;52.998;5.862;2023-11-21T08:59:13;9.10;99.90
54431;DHT22;40342;52.998;5.862;2023-11-21T09:01:39;9.10;99.90
54431;DHT22;40342;52.998;5.862;2023-11-21T09:04:05;9.10;99.90
54431;DHT22;40342;52.998;5.862;2023-11-21T09:06:31;9.10;99.90
54431;DHT22;40342;52.998;5.862;2023-11-21T09:08:57;9.10;99.90
54431;DHT22;40342;52.998;5.862;2023-11-21T09:11:23;9.10;99.90
54431;DHT22;40342;52.998;5.862;2023-11-21T09:13:50;9.10;99.90
54431;DHT22;40342;52.998;5.862;2023-11-21T09:16:16;9.10;99.90
54431;DHT22;40342;52.998;5.862;2023-11-21T09:18:42;9.10;99.90
54431;DHT22;40342;52.998;5.862;2023-11-21T09:21:08;9.10;99.90
54431;DHT22;40342;52.998;5.862;2023-11-21T09:23:35;9.10;99.90
54431;DHT22;40342;52.998;5.862;2023-11-21T09:26:01;9.10;99.90
54431;DHT22;40342;52.998;5.862;2023-11-21T09:28:27;9.10;99.90
54431;DHT22;40342;52.998;5.862;2023-11-21T09:30:53;9.20;99.90
54431;DHT22;40342;52.998;5.862;2023-11-21T09:33:19;9.10;99.90
54431;DHT22;40342;52.998;5.862;2023-11-21T09:35:44;9.10;99.90
54431;DHT22;40342;52.998;5.862;2023-11-21T09:38:10;9.20;99.90
54431;DHT22;40342;52.998;5.862;2023-11-21T09:40:36;9.10;99.90
54431;DHT22;40342;52.998;5.862;2023-11-21T09:43:09;9.10;99.90
54431;DHT22;40342;52.998;5.862;2023-11-21T09:45:48;9.10;99.90
54431;DHT22;40342;52.998;5.862;2023-11-21T09:48:20;9.10;99.90
54431;DHT22;40342;52.998;5.862;2023-11-21T09:50:47;9.20;99.90
54431;DHT22;40342;52.998;5.862;2023-11-21T09:53:19;9.20;99.90
54431;DHT22;40342;52.998;5.862;2023-11-21T09:55:52;9.10;99.90
54431;DHT22;40342;52.998;5.862;2023-11-21T09:58:19;9.10;99.90
54431;DHT22;40342;52.998;5.862;2023-11-21T10:00:50;9.10;99.90
54431;DHT22;40342;52.998;5.862;2023-11-21T10:03:17;9.10;99.90
54431;DHT22;40342;52.998;5.862;2023-11-21T10:05:43;9.10;99.90
54431;DHT22;40342;52.998;5.862;2023-11-21T10:08:12;9.10;99.90
54431;DHT22;40342;52.998;5.862;2023-11-21T10:10:45;9.10;99.90
54431;DHT22;40342;52.998;5.862;2023-11-21T10:13:13;9.10;99.90
54431;DHT22;40342;52.998;5.862;2023-11-21T10:15:42;9.20;99.90
54431;DHT22;40342;52.998;5.862;2023-11-21T10:18:14;9.20;99.90
54431;DHT22;40342;52.998;5.862;2023-11-21T10:20:41;9.20;99.90
54431;DHT22;40342;52.998;5.862;2023-11-21T10:23:07;9.20;99.90
54431;DHT22;40342;52.998;5.862;2023-11-21T10:25:37;9.20;99.90
54431;DHT22;40342;52.998;5.862;2023-11-21T10:28:03;9.30;99.90
54431;DHT22;40342;52.998;5.862;2023-11-21T10:30:37;9.30;99.90
54431;DHT22;40342;52.998;5.862;2023-11-21T10:33:04;9.30;99.90
54431;DHT22;40342;52.998;5.862;2023-11-21T10:35:43;9.30;99.90
54431;DHT22;40342;52.998;5.862;2023-11-21T10:38:12;9.30;99.90
54431;DHT22;40342;52.998;5.862;2023-11-21T10:40:40;9.20;99.90
54431;DHT22;40342;52.998;5.862;2023-11-21T10:43:08;9.20;99.90
54431;DHT22;40342;52.998;5.862;2023-11-21T10:45:43;9.20;99.90
54431;DHT22;40342;52.998;5.862;2023-11-21T10:48:10;9.20;99.90
54431;DHT22;40342;52.998;5.862;2023-11-21T10:50:37;9.20;99.90
54431;DHT22;40342;52.998;5.862;2023-11-21T10:53:04;9.20;99.90
54431;DHT22;40342;52.998;5.862;2023-11-21T10:55:31;9.20;99.90
54431;DHT22;40342;52.998;5.862;2023-11-21T10:57:59;9.20;99.90
54431;DHT22;40342;52.998;5.862;2023-11-21T11:00:26;9.30;99.90
54431;DHT22;40342;52.998;5.862;2023-11-21T11:02:53;9.20;99.90
54431;DHT22;40342;52.998;5.862;2023-11-21T11:05:20;9.20;99.90
54431;DHT22;40342;52.998;5.862;2023-11-21T11:07:59;9.20;99.90
54431;DHT22;40342;52.998;5.862;2023-11-21T11:10:28;9.20;99.90
54431;DHT22;40342;52.998;5.862;2023-11-21T11:12:55;9.20;99.90
54431;DHT22;40342;52.998;5.862;2023-11-21T11:15:23;9.20;99.90
54431;DHT22;40342;52.998;5.862;2023-11-21T11:17:49;9.20;99.90
54431;DHT22;40342;52.998;5.862;2023-11-21T11:20:16;9.20;99.90
54431;DHT22;40342;52.998;5.862;2023-11-21T11:28:19;9.10;99.90
54431;DHT22;40342;52.998;5.862;2023-11-21T11:33:53;9.10;99.90
54431;DHT22;40342;52.998;5.862;2023-11-21T11:36:31;9.10;99.90
54431;DHT22;40342;52.998;5.862;2023-11-21T11:38:58;9.00;99.90
54431;DHT22;40342;52.998;5.862;2023-11-21T11:41:25;9.00;99.90
54431;DHT22;40342;52.998;5.862;2023-11-21T11:43:56;9.00;99.90
54431;DHT22;40342;52.998;5.862;2023-11-21T11:46:43;9.00;99.90
54431;DHT22;40342;52.998;5.862;2023-11-21T11:49:10;9.00;99.90
54431;DHT22;40342;52.998;5.862;2023-11-21T11:51:36;8.90;99.90
54431;DHT22;40342;52.998;5.862;2023-11-21T11:54:02;8.90;99.90
54431;DHT22;40342;52.998;5.862;2023-11-21T11:56:30;8.90;99.90
54431;DHT22;40342;52.998;5.862;2023-11-21T11:59:01;8.90;99.90
54431;DHT22;40342;52.998;5.862;2023-11-21T12:01:34;8.90;99.90
54431;DHT22;40342;52.998;5.862;2023-11-21T12:06:45;8.90;99.90
54431;DHT22;40342;52.998;5.862;2023-11-21T12:09:24;8.90;99.90
54431;DHT22;40342;52.998;5.862;2023-11-21T12:11:52;8.90;99.90
54431;DHT22;40342;52.998;5.862;2023-11-21T12:14:18;9.00;99.90
54431;DHT22;40342;52.998;5.862;2023-11-21T12:16:44;9.00;99.90
54431;DHT22;40342;52.998;5.862;2023-11-21T12:19:11;9.10;99.90
54431;DHT22;40342;52.998;5.862;2023-11-21T12:21:37;9.10;99.90
54431;DHT22;40342;52.998;5.862;2023-11-21T12:24:04;9.20;99.90
54431;DHT22;40342;52.998;5.862;2023-11-21T12:26:30;9.20;99.90
54431;DHT22;40342;52.998;5.862;2023-11-21T12:28:55;9.20;99.90
54431;DHT22;40342;52.998;5.862;2023-11-21T12:31:24;9.20;99.90
54431;DHT22;40342;52.998;5.862;2023-11-21T12:33:50;9.30;99.90
54431;DHT22;40342;52.998;5.862;2023-11-21T12:36:16;9.30;99.90
54431;DHT22;40342;52.998;5.862;2023-11-21T12:38:42;9.30;99.90
54431;DHT22;40342;52.998;5.862;2023-11-21T12:41:09;9.30;99.90
54431;DHT22;40342;52.998;5.862;2023-11-21T12:43:35;9.30;99.90
54431;DHT22;40342;52.998;5.862;2023-11-21T12:46:05;9.40;99.90
54431;DHT22;40342;52.998;5.862;2023-11-21T12:48:32;9.50;99.90
54431;DHT22;40342;52.998;5.862;2023-11-21T12:50:57;9.70;99.90
54431;DHT22;40342;52.998;5.862;2023-11-21T12:53:26;9.80;99.90
54431;DHT22;40342;52.998;5.862;2023-11-21T12:55:51;9.80;99.90
54431;DHT22;40342;52.998;5.862;2023-11-21T12:58:22;9.80;99.90
54431;DHT22;40342;52.998;5.862;2023-11-21T13:00:49;9.80;99.90
54431;DHT22;40342;52.998;5.862;2023-11-21T13:03:16;9.80;99.90
54431;DHT22;40342;52.998;5.862;2023-11-21T13:05:44;9.90;99.90
54431;DHT22;40342;52.998;5.862;2023-11-21T13:08:12;10.00;99.90
54431;DHT22;40342;52.998;5.862;2023-11-21T13:10:40;10.10;99.90
54431;DHT22;40342;52.998;5.862;2023-11-21T13:13:09;10.10;99.90
54431;DHT22;40342;52.998;5.862;2023-11-21T13:15:39;10.10;99.90
54431;DHT22;40342;52.998;5.862;2023-11-21T13:18:06;10.00;99.90
54431;DHT22;40342;52.998;5.862;2023-11-21T13:20:32;10.00;99.90
54431;DHT22;40342;52.998;5.862;2023-11-21T13:22:58;10.00;99.90
54431;DHT22;40342;52.998;5.862;2023-11-21T13:25:27;10.10;99.90
54431;DHT22;40342;52.998;5.862;2023-11-21T13:27:54;10.10;99.90
54431;DHT22;40342;52.998;5.862;2023-11-21T13:30:20;10.00;99.90
54431;DHT22;40342;52.998;5.862;2023-11-21T13:32:52;10.00;99.90
54431;DHT22;40342;52.998;5.862;2023-11-21T13:35:18;9.90;99.90
54431;DHT22;40342;52.998;5.862;2023-11-21T13:37:56;9.80;99.90
54431;DHT22;40342;52.998;5.862;2023-11-21T13:40:26;9.80;99.90
54431;DHT22;40342;52.998;5.862;2023-11-21T13:42:53;9.70;99.90
54431;DHT22;40342;52.998;5.862;2023-11-21T13:45:21;9.70;99.90
54431;DHT22;40342;52.998;5.862;2023-11-21T13:47:48;9.60;99.90
54431;DHT22;40342;52.998;5.862;2023-11-21T13:50:17;9.60;99.90
54431;DHT22;40342;52.998;5.862;2023-11-21T13:52:48;9.60;99.90
54431;DHT22;40342;52.998;5.862;2023-11-21T13:55:14;9.70;99.90
54431;DHT22;40342;52.998;5.862;2023-11-21T13:57:45;9.80;99.90
54431;DHT22;40342;52.998;5.862;2023-11-21T14:00:15;9.80;99.90
54431;DHT22;40342;52.998;5.862;2023-11-21T14:03:01;10.00;99.90
54431;DHT22;40342;52.998;5.862;2023-11-21T14:05:27;10.00;99.90
54431;DHT22;40342;52.998;5.862;2023-11-21T14:07:57;10.00;99.90
54431;DHT22;40342;52.998;5.862;2023-11-21T14:10:31;10.10;99.90
54431;DHT22;40342;52.998;5.862;2023-11-21T14:13:05;10.10;99.90
54431;DHT22;40342;52.998;5.862;2023-11-21T14:15:32;10.10;99.90
54431;DHT22;40342;52.998;5.862;2023-11-21T14:17:59;10.00;99.90
54431;DHT22;40342;52.998;5.862;2023-11-21T14:20:27;9.90;99.90
54431;DHT22;40342;52.998;5.862;2023-11-21T14:22:54;9.90;99.90
54431;DHT22;40342;52.998;5.862;2023-11-21T14:25:20;10.00;99.90
54431;DHT22;40342;52.998;5.862;2023-11-21T14:27:48;10.30;99.90
54431;DHT22;40342;52.998;5.862;2023-11-21T14:30:13;10.50;99.90
54431;DHT22;40342;52.998;5.862;2023-11-21T14:32:40;10.70;99.90
54431;DHT22;40342;52.998;5.862;2023-11-21T14:35:06;10.80;99.90
54431;DHT22;40342;52.998;5.862;2023-11-21T14:37:34;10.80;99.90
54431;DHT22;40342;52.998;5.862;2023-11-21T14:40:00;10.70;99.90
54431;DHT22;40342;52.998;5.862;2023-11-21T14:42:26;10.70;99.90
54431;DHT22;40342;52.998;5.862;2023-11-21T14:44:55;10.60;99.90
54431;DHT22;40342;52.998;5.862;2023-11-21T14:47:25;10.60;99.90
54431;DHT22;40342;52.998;5.862;2023-11-21T14:49:52;10.50;99.90
54431;DHT22;40342;52.998;5.862;2023-11-21T14:52:21;10.50;99.90
54431;DHT22;40342;52.998;5.862;2023-11-21T14:54:59;10.40;99.90
54431;DHT22;40342;52.998;5.862;2023-11-21T14:57:43;10.30;99.90
54431;DHT22;40342;52.998;5.862;2023-11-21T15:00:19;10.20;99.90
54431;DHT22;40342;52.998;5.862;2023-11-21T15:03:17;10.10;99.90
54431;DHT22;40342;52.998;5.862;2023-11-21T15:05:58;9.90;99.90
54431;DHT22;40342;52.998;5.862;2023-11-21T15:08:25;9.80;99.90
54431;DHT22;40342;52.998;5.862;2023-11-21T15:10:57;9.70;99.90
54431;DHT22;40342;52.998;5.862;2023-11-21T15:13:23;9.60;99.90
54431;DHT22;40342;52.998;5.862;2023-11-21T15:15:51;9.60;99.90
54431;DHT22;40342;52.998;5.862;2023-11-21T15:18:20;9.50;99.90
54431;DHT22;40342;52.998;5.862;2023-11-21T15:20:46;9.40;99.90
54431;DHT22;40342;52.998;5.862;2023-11-21T15:23:11;9.40;99.90
54431;DHT22;40342;52.998;5.862;2023-11-21T15:25:43;9.30;99.90
54431;DHT22;40342;52.998;5.862;2023-11-21T15:28:08;9.20;99.90
54431;DHT22;40342;52.998;5.862;2023-11-21T15:30:34;9.20;99.90
54431;DHT22;40342;52.998;5.862;2023-11-21T15:33:00;9.20;99.90
54431;DHT22;40342;52.998;5.862;2023-11-21T15:35:29;9.10;99.90
54431;DHT22;40342;52.998;5.862;2023-11-21T15:37:55;9.10;99.90
54431;DHT22;40342;52.998;5.862;2023-11-21T15:40:23;9.00;99.90
54431;DHT22;40342;52.998;5.862;2023-11-21T15:42:49;9.00;99.90
54431;DHT22;40342;52.998;5.862;2023-11-21T15:45:15;8.90;99.90
54431;DHT22;40342;52.998;5.862;2023-11-21T15:47:44;8.90;99.90
54431;DHT22;40342;52.998;5.862;2023-11-21T15:50:09;8.80;99.90
54431;DHT22;40342;52.998;5.862;2023-11-21T15:52:36;8.80;99.90
54431;DHT22;40342;52.998;5.862;2023-11-21T15:55:03;8.70;99.90